LiveATC.Net - Listen to live air traffic control over the Internet!


ICAO: SVMI  IATA: CCS   Airport: Simon Bolivar International Airport
City: Maiquetia
Country: Venezuela   Continent: South America
SVMI METAR Weather: SVMI 110400Z 09001KT CAVOK 26/23 Q1012
SVMI ADS-B Flight Tracking  (ADSBExchange)
SVMI Flight Activity (FlightAware)

SVMI/SVZM FIR
Feed Status: DOWN
Last heard on: 2023-09-18 10:14:40 (83 days 17 hours 53 minutes ago)
Archive Access: SVMI/SVZM FIR
FacilityFrequency
Approach120.100
Emergency/Guard121.500
Emergency/Guard243.000
Maiquetia ACC S135 Aux123.800
Maiquetia ACC S246 Aux128.100
Maiquetia ACC Sector S1128.500
Maiquetia ACC Sector S2125.200
Maiquetia ACC Sector S3126.600
Maiquetia ACC Sector S4126.000
Maiquetia ACC Sector S5128.700
Maiquetia ACC Sector S6127.950

NOTICE

Unauthorized use prohibited. See LiveATC.net Terms of Service


Airport/ARTCC Code
Frequency Search
(e.g., 124.400, 128.75)
Site-wide search
 


Browse Feeds
Top 50 Feeds
HF Oceanic Feeds
Coverage Map
Bad Weather Areas

LiveATC FAQ

Increase Coverage

Contact LiveATC.net
Press Inquiries

LiveATC on iPhone
LiveATC on Android

LiveATC Mobile
(Mobile browser)

ATC Audio Archives
Interesting Recordings

LiveATC Forums


Home Page
About LiveATC.net


Terms of Use
Privacy Policy

AIRMETs/SIGMETs

FAA Airport Status
NAS Status
Arrival Demand


Server Software By:
Icecast.org
Liquidsoap